Portada
METAR-TAF:

METAR-TAF

Aeroports :

Tena, Equador

latitud: 01-03-35S, longitud: 77-35-00W, altitud: 376 m

Observació

L'informe es va fer fa 10 hores i 14 minuts, a les 22:00 UTC
Vent 3 kt del Sud-Oest
Temperatura 23°C
Humitat 100%
Pressió 1015 hPa
Visibilitat 10 km o més
Escasses núvols a una alçada de 600 ft
Núvols disperses a una alçada de 1000 ft
Cel cobert a una alçada de 10000 ft
boira en bancs

METAR: SEJD 052200Z 23003KT 9999 BCFG FEW006 SCT010 OVC100 23/23 Q1015 RMK A3000

Hora: 03:14 (08:14 UTC)


TAF: manca

Observacions i pronòstics meteorològics de més de 4000 aeroports (METAR i TAF).

Les estacions disponibles són els punts grocs i vermells al mapa.

Posi el ratolí al punt desitjat per veure el nom de l'estació.

Feu clic per veure les observacions i els pronòstics meteorològics.

Per canviar el mapa: feu clic els botons verds amb una creu de color negre per apropar; al botó verd amb un guió per allunyar la imatge; o en les fletxes verdes per a mapes adjacents.


METAR-TAF: